createdAt,value
2023-04-26T00:00:30.374Z,2.5692
2023-04-26T00:01:33.345Z,2.5538
2023-04-26T00:02:36.376Z,2.4000
2023-04-26T00:03:39.298Z,2.3846
2023-04-26T00:04:42.249Z,2.2692
2023-04-26T00:05:45.132Z,2.1231
2023-04-26T00:06:48.130Z,2.1154
2023-04-26T00:07:50.936Z,2.0846
2023-04-26T00:08:54.238Z,2.0077
2023-04-26T00:09:56.868Z,1.9692
2023-04-26T00:10:59.799Z,2.0308
2023-04-26T00:12:02.794Z,1.9154
2023-04-26T00:13:05.747Z,2.0231
2023-04-26T00:14:08.711Z,2.4692
2023-04-26T00:15:11.644Z,1.8769
2023-04-26T00:16:14.576Z,2.0615
2023-04-26T00:17:17.520Z,2.1615
2023-04-26T00:18:20.478Z,2.0692
2023-04-26T00:19:23.413Z,1.9308
2023-04-26T00:20:26.420Z,1.9231
2023-04-26T00:21:29.366Z,1.8923
2023-04-26T00:22:32.283Z,1.8615
2023-04-26T00:23:35.219Z,2.0692
2023-04-26T00:24:38.176Z,2.0923
2023-04-26T00:25:41.152Z,2.1923
2023-04-26T00:26:44.068Z,2.2769
2023-04-26T00:27:47.026Z,1.9077
2023-04-26T00:28:50.264Z,1.9538
2023-04-26T00:29:52.915Z,1.9538
2023-04-26T00:30:55.891Z,1.9077
2023-04-26T00:31:58.947Z,1.9308
2023-04-26T00:33:01.800Z,1.7077
2023-04-26T00:34:04.718Z,1.8385
2023-04-26T00:35:07.706Z,1.9000
2023-04-26T00:36:10.617Z,1.8231
2023-04-26T00:37:13.576Z,2.1615
2023-04-26T00:38:16.517Z,1.9462
2023-04-26T00:39:19.465Z,2.1077
2023-04-26T00:40:22.451Z,2.0231
2023-04-26T00:41:25.374Z,2.1154
2023-04-26T00:42:28.390Z,2.1923
2023-04-26T00:43:31.260Z,2.2692
2023-04-26T00:44:34.219Z,2.4231
2023-04-26T00:45:37.235Z,2.2615
2023-04-26T00:46:40.111Z,2.2000
2023-04-26T00:47:43.082Z,2.2692
2023-04-26T00:48:46.009Z,2.3769
2023-04-26T00:49:48.983Z,2.3077
2023-04-26T00:50:51.946Z,2.1538
2023-04-26T00:51:54.913Z,2.1692
2023-04-26T00:52:57.817Z,1.8308
2023-04-26T00:54:00.764Z,1.9538
2023-04-26T00:55:03.755Z,1.8462
2023-04-26T00:56:06.837Z,1.9308
2023-04-26T00:57:09.641Z,1.9231
2023-04-26T00:58:12.664Z,1.8000
2023-04-26T00:59:15.530Z,1.9923
2023-04-26T01:00:18.493Z,1.7308
2023-04-26T01:01:21.637Z,1.7462
2023-04-26T01:02:24.444Z,1.7923
2023-04-26T01:03:27.495Z,1.9000
2023-04-26T01:04:30.408Z,1.8462
2023-04-26T01:05:33.275Z,1.7308
2023-04-26T01:06:36.202Z,1.7615
2023-04-26T01:07:39.149Z,1.8769
2023-04-26T01:08:42.075Z,2.0154
2023-04-26T01:09:45.018Z,1.9308
2023-04-26T01:10:48.008Z,1.8769
2023-04-26T01:11:50.921Z,1.7923
2023-04-26T01:12:53.885Z,1.7077
2023-04-26T01:13:56.822Z,1.8231
2023-04-26T01:14:59.787Z,1.8462
2023-04-26T01:16:02.849Z,1.9308
2023-04-26T01:17:05.786Z,2.1538
2023-04-26T01:18:08.635Z,1.9077
2023-04-26T01:19:11.571Z,1.9231
2023-04-26T01:20:14.520Z,1.9615
2023-04-26T01:21:17.479Z,1.8615
2023-04-26T01:22:20.430Z,1.7308
2023-04-26T01:23:23.469Z,1.6385
2023-04-26T01:24:26.376Z,1.6538
2023-04-26T01:25:29.287Z,1.8231
2023-04-26T01:26:32.240Z,1.7846
2023-04-26T01:27:35.191Z,1.9692
2023-04-26T01:28:38.224Z,2.0000
2023-04-26T01:29:41.128Z,1.9385
2023-04-26T01:30:44.078Z,1.8769
2023-04-26T01:31:47.021Z,2.0538
2023-04-26T01:32:49.997Z,2.2769
2023-04-26T01:33:52.980Z,2.4385
2023-04-26T01:34:55.868Z,2.0385
2023-04-26T01:35:58.799Z,2.0538
2023-04-26T01:37:01.754Z,1.6846
2023-04-26T01:38:04.736Z,1.8692
2023-04-26T01:39:07.657Z,1.9692
2023-04-26T01:40:10.629Z,1.8308
2023-04-26T01:41:13.566Z,1.8154
2023-04-26T01:42:16.515Z,1.9846
2023-04-26T01:43:19.484Z,2.0538
2023-04-26T01:44:22.432Z,2.1154
2023-04-26T01:45:25.415Z,1.9000
2023-04-26T01:46:28.358Z,2.0077
2023-04-26T01:47:31.456Z,1.8692
2023-04-26T01:48:34.338Z,2.0923
2023-04-26T01:49:37.321Z,1.9154
2023-04-26T01:50:40.216Z,2.0000
2023-04-26T01:51:43.177Z,1.8538
2023-04-26T01:52:46.121Z,2.0000
2023-04-26T01:53:49.078Z,1.9154
2023-04-26T01:54:52.024Z,2.0923
2023-04-26T01:55:54.968Z,1.8308
2023-04-26T01:56:57.923Z,1.8462
2023-04-26T01:58:00.866Z,1.6308
2023-04-26T01:59:03.827Z,1.7385
2023-04-26T02:00:06.779Z,1.9615
2023-04-26T02:01:09.792Z,1.8154
2023-04-26T02:02:12.748Z,1.8769
2023-04-26T02:03:15.744Z,1.9462
2023-04-26T02:04:18.574Z,2.0923
2023-04-26T02:05:21.618Z,1.9231
2023-04-26T02:06:24.504Z,2.0385
2023-04-26T02:07:27.474Z,1.8538
2023-04-26T02:08:30.422Z,2.1769
2023-04-26T02:09:33.354Z,2.1077
2023-04-26T02:10:36.364Z,2.0308
2023-04-26T02:11:39.266Z,1.9231
2023-04-26T02:12:42.229Z,1.9615
2023-04-26T02:13:45.162Z,1.9846
2023-04-26T02:14:48.129Z,1.9923
2023-04-26T02:15:51.097Z,1.9692
2023-04-26T02:16:54.076Z,2.2000
2023-04-26T02:17:57.064Z,1.9923
2023-04-26T02:18:59.931Z,1.8769
2023-04-26T02:20:02.904Z,1.9692
2023-04-26T02:21:05.845Z,1.9154
2023-04-26T02:22:08.810Z,2.2231
2023-04-26T02:23:11.753Z,2.3462
2023-04-26T02:24:14.718Z,2.1000
2023-04-26T02:25:17.716Z,2.2231
2023-04-26T02:26:20.646Z,2.1154
2023-04-26T02:27:23.592Z,2.0077
2023-04-26T02:28:26.564Z,2.0692
2023-04-26T02:29:42.250Z,2.0231
2023-04-26T02:30:32.431Z,2.1000
2023-04-26T02:31:35.444Z,2.0231
2023-04-26T02:32:38.397Z,2.1462
2023-04-26T02:33:41.372Z,1.9154
2023-04-26T02:34:44.256Z,1.8923
2023-04-26T02:35:47.199Z,1.8154
2023-04-26T02:36:50.179Z,1.9000
2023-04-26T02:37:53.093Z,2.0615
2023-04-26T02:38:56.077Z,1.9385
2023-04-26T02:39:59.006Z,2.0000
2023-04-26T02:41:02.034Z,1.9769
2023-04-26T02:42:05.113Z,2.0615
2023-04-26T02:43:07.854Z,2.0385
2023-04-26T02:44:10.826Z,2.0538
2023-04-26T02:45:13.784Z,2.0538
2023-04-26T02:46:17.394Z,2.0692
2023-04-26T02:47:19.657Z,2.1385
2023-04-26T02:48:22.622Z,1.8923
2023-04-26T02:49:25.599Z,1.8385
2023-04-26T02:50:28.582Z,2.0462
2023-04-26T02:51:31.461Z,1.9615
2023-04-26T02:52:34.446Z,2.1231
2023-04-26T02:53:37.378Z,2.0692
2023-04-26T02:54:40.410Z,1.9692
2023-04-26T02:55:43.284Z,2.0308
2023-04-26T02:56:46.236Z,1.9077
2023-04-26T02:57:49.184Z,1.8769
2023-04-26T02:58:52.368Z,1.9308
2023-04-26T02:59:55.095Z,1.8077
2023-04-26T03:02:01.029Z,1.9231
2023-04-26T03:03:04.047Z,2.0231
2023-04-26T03:04:07.079Z,1.7154
2023-04-26T03:05:09.900Z,1.7692
2023-04-26T03:06:12.799Z,1.8538
2023-04-26T03:07:15.781Z,1.6692
2023-04-26T03:08:18.682Z,1.5923
2023-04-26T03:09:21.645Z,1.5615
2023-04-26T03:10:24.593Z,1.6923
2023-04-26T03:11:27.573Z,1.6692
2023-04-26T03:12:30.484Z,1.6000
2023-04-26T03:13:33.498Z,1.7000
2023-04-26T03:14:36.395Z,1.6077
2023-04-26T03:15:39.359Z,1.6462
2023-04-26T03:16:42.402Z,1.5769
2023-04-26T03:17:45.269Z,1.6846
2023-04-26T03:18:48.218Z,1.6154
2023-04-26T03:19:51.144Z,1.7000
2023-04-26T03:20:54.116Z,1.7154
2023-04-26T03:21:57.049Z,1.7077
2023-04-26T03:23:00.011Z,1.7385
2023-04-26T03:24:02.963Z,1.7846
2023-04-26T03:25:05.981Z,1.8154
2023-04-26T03:26:08.848Z,1.8231
2023-04-26T03:27:11.812Z,1.8692
2023-04-26T03:28:14.814Z,1.8923
2023-04-26T03:29:17.690Z,1.8769
2023-04-26T03:30:20.645Z,1.7846
2023-04-26T03:31:23.706Z,1.8462
2023-04-26T03:32:26.576Z,1.7231
2023-04-26T03:33:29.505Z,1.7846
2023-04-26T03:34:32.444Z,2.0000
2023-04-26T03:35:35.393Z,1.8385
2023-04-26T03:36:38.408Z,1.9077
2023-04-26T03:37:41.293Z,1.8231
2023-04-26T03:38:44.285Z,1.8154
2023-04-26T03:39:47.203Z,1.9923
2023-04-26T03:40:50.168Z,1.8308
2023-04-26T03:41:53.123Z,2.0692
2023-04-26T03:42:56.087Z,2.0462
2023-04-26T03:43:59.005Z,1.9538
2023-04-26T03:45:01.962Z,2.0000
2023-04-26T03:46:05.014Z,2.0000
2023-04-26T03:47:07.880Z,1.9462
2023-04-26T03:48:10.874Z,1.9615
2023-04-26T03:49:13.792Z,1.9154
2023-04-26T03:50:16.723Z,1.8462
2023-04-26T03:51:19.685Z,1.8692
2023-04-26T03:52:22.623Z,1.9077
2023-04-26T03:53:25.589Z,1.9692
2023-04-26T03:54:28.538Z,2.1231
2023-04-26T03:55:31.501Z,1.8231
2023-04-26T03:56:34.472Z,1.8385
2023-04-26T03:57:37.396Z,2.2308
2023-04-26T03:58:40.395Z,4.8385
2023-04-26T03:59:43.304Z,18.1231
2023-04-26T04:00:46.243Z,6.6538
2023-04-26T04:01:49.204Z,3.2692
2023-04-26T04:02:52.289Z,2.1692
2023-04-26T04:03:55.463Z,2.0846
2023-04-26T04:04:58.222Z,1.9308
2023-04-26T04:06:01.210Z,2.0385
2023-04-26T04:07:03.973Z,1.9385
2023-04-26T04:08:07.157Z,2.0692
2023-04-26T04:09:09.918Z,2.1692
2023-04-26T04:10:12.855Z,1.9385
2023-04-26T04:11:16.904Z,2.0615
2023-04-26T04:12:18.854Z,1.8615
2023-04-26T04:13:21.710Z,1.8692
2023-04-26T04:14:24.692Z,2.0154
2023-04-26T04:15:27.682Z,2.0769
2023-04-26T04:16:30.672Z,1.9231
2023-04-26T04:17:33.563Z,1.9538
2023-04-26T04:18:36.627Z,2.0231
2023-04-26T04:19:39.458Z,1.9615
2023-04-26T04:20:42.400Z,1.8692
2023-04-26T04:21:45.376Z,2.9538
2023-04-26T04:22:48.301Z,3.3846
2023-04-26T04:23:51.253Z,2.2615
2023-04-26T04:24:54.243Z,1.9923
2023-04-26T04:25:57.169Z,2.0692
2023-04-26T04:27:00.126Z,1.8231
2023-04-26T04:28:03.147Z,2.0000
2023-04-26T04:29:05.989Z,2.0000
2023-04-26T04:30:08.995Z,2.0923
2023-04-26T04:31:11.975Z,2.0846
2023-04-26T04:32:14.973Z,2.0154
2023-04-26T04:33:17.890Z,1.9385
2023-04-26T04:34:20.738Z,2.0077
2023-04-26T04:35:23.709Z,1.9077
2023-04-26T04:36:26.641Z,2.1615
2023-04-26T04:37:29.640Z,2.0308
2023-04-26T04:38:32.555Z,2.1385
2023-04-26T04:39:35.502Z,1.9846
2023-04-26T04:40:38.438Z,2.4769
2023-04-26T04:41:41.425Z,2.1308
2023-04-26T04:42:44.355Z,2.2000
2023-04-26T04:43:47.343Z,2.2692
2023-04-26T04:44:50.246Z,2.2308
2023-04-26T04:45:53.362Z,2.2385
2023-04-26T04:46:56.205Z,2.1769
2023-04-26T04:47:59.146Z,2.1923
2023-04-26T04:49:02.065Z,2.0692
2023-04-26T04:50:05.027Z,2.3000
2023-04-26T04:51:07.986Z,2.1000
2023-04-26T04:52:10.923Z,2.2000
2023-04-26T04:53:13.866Z,2.5846
2023-04-26T04:54:16.883Z,2.5154
2023-04-26T04:55:19.788Z,2.4462
2023-04-26T04:56:22.737Z,2.6077
2023-04-26T04:57:25.662Z,2.4308
2023-04-26T04:58:28.620Z,2.5615
2023-04-26T04:59:31.587Z,2.3077
2023-04-26T05:00:34.611Z,2.2538
2023-04-26T05:01:37.543Z,2.3538
2023-04-26T05:02:40.658Z,2.5154
2023-04-26T05:03:43.630Z,2.4231
2023-04-26T05:04:46.459Z,2.5154
2023-04-26T05:05:49.320Z,2.3923
2023-04-26T05:06:52.231Z,2.2923
2023-04-26T05:07:55.228Z,2.3923
2023-04-26T05:08:58.186Z,2.3077
2023-04-26T05:10:01.149Z,2.3077
2023-04-26T05:11:04.083Z,2.3231
2023-04-26T05:12:07.069Z,2.1923
2023-04-26T05:13:09.972Z,2.3538
2023-04-26T05:14:12.943Z,2.5154
2023-04-26T05:15:16.012Z,2.4769
2023-04-26T05:16:18.877Z,2.3923
2023-04-26T05:17:21.805Z,2.4692
2023-04-26T05:18:24.741Z,2.4692
2023-04-26T05:19:27.719Z,2.4923
2023-04-26T05:20:30.654Z,2.6692
2023-04-26T05:21:33.610Z,2.5769
2023-04-26T05:22:36.586Z,2.5231
2023-04-26T05:23:39.542Z,2.4538
2023-04-26T05:24:42.476Z,2.6077
2023-04-26T05:25:45.477Z,2.7000
2023-04-26T05:26:48.376Z,2.5000
2023-04-26T05:27:51.383Z,2.4385
2023-04-26T05:28:54.401Z,2.5538
2023-04-26T05:29:57.251Z,2.6308
2023-04-26T05:31:00.214Z,2.5923
2023-04-26T05:32:03.230Z,2.3000
2023-04-26T05:33:06.198Z,2.5615
2023-04-26T05:34:09.067Z,2.5385
2023-04-26T05:35:12.008Z,2.5846
2023-04-26T05:36:14.962Z,2.3846
2023-04-26T05:37:17.918Z,2.4769
2023-04-26T05:38:20.844Z,2.5308
2023-04-26T05:39:23.805Z,2.7462
2023-04-26T05:40:26.779Z,2.8692
2023-04-26T05:41:29.718Z,2.6000
2023-04-26T05:42:32.718Z,2.7692
2023-04-26T05:43:35.642Z,2.7385
2023-04-26T05:44:38.593Z,2.7231
2023-04-26T05:45:41.583Z,2.6846
2023-04-26T05:46:44.522Z,2.9923
2023-04-26T05:47:47.503Z,3.2154
2023-04-26T05:48:50.403Z,3.0308
2023-04-26T05:49:53.517Z,2.7769
2023-04-26T05:50:56.327Z,2.8615
2023-04-26T05:51:59.302Z,2.6692
2023-04-26T05:53:02.268Z,2.7615
2023-04-26T05:54:05.199Z,3.2154
2023-04-26T05:55:08.164Z,3.1692
2023-04-26T05:56:11.179Z,3.2923
2023-04-26T05:57:14.136Z,2.9615
2023-04-26T05:58:17.105Z,2.7462
2023-04-26T05:59:20.071Z,3.1385
2023-04-26T06:00:22.978Z,2.9154
2023-04-26T06:01:26.025Z,3.1615
2023-04-26T06:02:28.992Z,3.0923
2023-04-26T06:03:32.082Z,3.2692
2023-04-26T06:04:34.943Z,3.3923
2023-04-26T06:05:37.735Z,3.5154
2023-04-26T06:06:40.716Z,3.1846
2023-04-26T06:07:43.637Z,3.6154
2023-04-26T06:08:46.657Z,3.6769
2023-04-26T06:09:49.572Z,3.7923
2023-04-26T06:10:52.505Z,3.9077
2023-04-26T06:11:56.274Z,4.2615
2023-04-26T06:12:58.422Z,4.2000
2023-04-26T06:14:01.364Z,4.1923
2023-04-26T06:15:04.320Z,4.0846
2023-04-26T06:16:07.267Z,4.1308
2023-04-26T06:17:10.263Z,3.9231
2023-04-26T06:18:13.151Z,3.9692
2023-04-26T06:19:16.088Z,3.9231
2023-04-26T06:20:19.076Z,4.2231
2023-04-26T06:21:22.016Z,3.9769
2023-04-26T06:22:24.922Z,3.8692
2023-04-26T06:23:27.971Z,4.0308
2023-04-26T06:24:30.871Z,3.9000
2023-04-26T06:25:33.804Z,3.8000
2023-04-26T06:26:36.728Z,3.9462
2023-04-26T06:27:39.681Z,4.0000
2023-04-26T06:28:42.626Z,3.7385
2023-04-26T06:29:45.590Z,3.8462
2023-04-26T06:30:48.639Z,3.7154
2023-04-26T06:31:51.475Z,3.8769
2023-04-26T06:32:54.513Z,3.6692
2023-04-26T06:33:57.437Z,3.6154
2023-04-26T06:35:00.366Z,3.5615
2023-04-26T06:36:03.320Z,3.6308
2023-04-26T06:37:06.340Z,3.7846
2023-04-26T06:38:09.201Z,3.6538
2023-04-26T06:39:12.120Z,3.5308
2023-04-26T06:40:15.135Z,3.5538
2023-04-26T06:41:18.017Z,3.6692
2023-04-26T06:42:20.985Z,3.8077
2023-04-26T06:43:23.899Z,3.8615
2023-04-26T06:44:26.870Z,3.8308
2023-04-26T06:45:29.821Z,3.8846
2023-04-26T06:46:32.835Z,3.8538
2023-04-26T06:47:35.793Z,3.9538
2023-04-26T06:48:38.659Z,4.0615
2023-04-26T06:49:41.629Z,3.9308
2023-04-26T06:50:44.591Z,4.1385
2023-04-26T06:51:47.522Z,3.9462
2023-04-26T06:52:50.533Z,3.8923
2023-04-26T06:53:53.686Z,3.9385
2023-04-26T06:54:57.729Z,3.9077
2023-04-26T06:55:59.289Z,4.0385
2023-04-26T06:57:02.370Z,3.8615
2023-04-26T06:58:05.184Z,3.9846
2023-04-26T06:59:08.151Z,4.1923
2023-04-26T07:00:11.107Z,3.9692
2023-04-26T07:01:14.080Z,3.6154
2023-04-26T07:02:17.043Z,4.2385
2023-04-26T07:03:20.370Z,4.1077
2023-04-26T07:04:23.271Z,4.1000
2023-04-26T07:05:26.033Z,3.9385
2023-04-26T07:06:28.740Z,4.0385
2023-04-26T07:07:31.700Z,3.9154
2023-04-26T07:08:34.763Z,3.7615
2023-04-26T07:09:37.624Z,3.6923
2023-04-26T07:10:40.544Z,3.6231
2023-04-26T07:11:43.488Z,3.7077
2023-04-26T07:12:46.595Z,3.5077
2023-04-26T07:13:49.415Z,3.3923
2023-04-26T07:14:52.363Z,3.5692
2023-04-26T07:15:55.346Z,3.7615
2023-04-26T07:16:58.260Z,3.6077
2023-04-26T07:18:01.199Z,3.4846
2023-04-26T07:19:04.108Z,3.6000
2023-04-26T07:20:07.083Z,3.4846
2023-04-26T07:21:10.045Z,3.2538
2023-04-26T07:22:13.362Z,3.3000
2023-04-26T07:23:15.897Z,3.3846
2023-04-26T07:24:18.867Z,3.1769
2023-04-26T07:25:21.790Z,2.8692
2023-04-26T07:26:24.753Z,3.0154
2023-04-26T07:27:27.688Z,3.0615
2023-04-26T07:28:30.750Z,2.9923
2023-04-26T07:29:33.598Z,2.8846
2023-04-26T07:30:36.543Z,2.9231
2023-04-26T07:31:39.497Z,2.8692
2023-04-26T07:32:42.501Z,2.8615
2023-04-26T07:33:45.586Z,2.6462
2023-04-26T07:34:48.357Z,3.0000
2023-04-26T07:35:51.247Z,2.8538
2023-04-26T07:36:54.201Z,2.6692
2023-04-26T07:37:57.152Z,2.6615
2023-04-26T07:39:00.128Z,2.6846
2023-04-26T07:40:03.110Z,2.6538
2023-04-26T07:41:05.992Z,2.4923
2023-04-26T07:42:08.918Z,2.5462
2023-04-26T07:43:11.903Z,2.5308
2023-04-26T07:44:14.838Z,2.6923
2023-04-26T07:45:17.750Z,2.7308
2023-04-26T07:46:20.737Z,2.7308
2023-04-26T07:47:23.664Z,2.5692
2023-04-26T07:48:26.582Z,2.3154
2023-04-26T07:49:29.541Z,2.4231
2023-04-26T07:50:32.479Z,2.5231
2023-04-26T07:51:35.415Z,2.5308
2023-04-26T07:52:38.361Z,2.4077
2023-04-26T07:53:41.301Z,2.5462
2023-04-26T07:54:44.291Z,2.5231
2023-04-26T07:55:47.944Z,2.4923
2023-04-26T07:56:50.126Z,2.3077
2023-04-26T07:57:53.138Z,2.1923
2023-04-26T07:58:56.023Z,2.2231
2023-04-26T07:59:58.953Z,2.3615
2023-04-26T08:01:01.909Z,2.4385
2023-04-26T08:02:04.878Z,2.3000
2023-04-26T08:03:07.998Z,1.9308
2023-04-26T08:04:11.124Z,1.9692
2023-04-26T08:05:13.955Z,2.0923
2023-04-26T08:06:16.710Z,2.1000
2023-04-26T08:07:19.550Z,2.1308
2023-04-26T08:08:22.571Z,2.1692
2023-04-26T08:09:25.455Z,2.1154
2023-04-26T08:10:28.556Z,2.0923
2023-04-26T08:11:31.397Z,2.1077
2023-04-26T08:12:34.278Z,2.1923
2023-04-26T08:13:37.272Z,2.2154
2023-04-26T08:14:40.155Z,2.2385
2023-04-26T08:15:43.114Z,2.1385
2023-04-26T08:16:46.141Z,2.1769
2023-04-26T08:17:49.012Z,2.2308
2023-04-26T08:18:51.977Z,2.1923
2023-04-26T08:19:54.866Z,2.0538
2023-04-26T08:20:57.813Z,2.0462
2023-04-26T08:22:00.792Z,2.0385
2023-04-26T08:23:03.706Z,2.1000
2023-04-26T08:24:06.646Z,2.0923
2023-04-26T08:25:09.617Z,2.1538
2023-04-26T08:26:12.560Z,2.0154
2023-04-26T08:27:15.582Z,1.9231
2023-04-26T08:28:18.451Z,2.0000
2023-04-26T08:29:21.395Z,1.6692
2023-04-26T08:30:24.356Z,1.7000
2023-04-26T08:31:27.316Z,1.6154
2023-04-26T08:32:30.249Z,1.5077
2023-04-26T08:33:33.157Z,1.5846
2023-04-26T08:34:36.099Z,1.5462
2023-04-26T08:35:39.089Z,1.5000
2023-04-26T08:36:41.993Z,1.4846
2023-04-26T08:37:44.923Z,1.3846
2023-04-26T08:38:47.895Z,1.4538
2023-04-26T08:39:50.799Z,1.6923
2023-04-26T08:40:53.791Z,1.5615
2023-04-26T08:41:56.706Z,1.6615
2023-04-26T08:42:59.729Z,1.5615
2023-04-26T08:44:02.775Z,1.5462
2023-04-26T08:45:05.626Z,1.6000
2023-04-26T08:46:08.515Z,1.4769
2023-04-26T08:47:11.452Z,1.6923
2023-04-26T08:48:14.422Z,1.6692
2023-04-26T08:49:17.337Z,1.5923
2023-04-26T08:50:20.291Z,1.7000
2023-04-26T08:51:23.416Z,1.6923
2023-04-26T08:52:26.163Z,1.7231
2023-04-26T08:53:29.122Z,1.5923
2023-04-26T08:54:32.148Z,1.7308
2023-04-26T08:55:35.051Z,1.7538
2023-04-26T08:56:37.956Z,1.7385
2023-04-26T08:57:40.947Z,1.7231
2023-04-26T08:58:43.935Z,1.5846
2023-04-26T08:59:46.805Z,1.6154
2023-04-26T09:00:49.919Z,1.6154
2023-04-26T09:01:52.751Z,1.4538
2023-04-26T09:02:55.752Z,1.2615
2023-04-26T09:03:58.881Z,1.3692
2023-04-26T09:05:01.804Z,1.4692
2023-04-26T09:06:04.614Z,1.5385
2023-04-26T09:07:07.439Z,1.6615
2023-04-26T09:08:10.396Z,1.5923
2023-04-26T09:09:13.325Z,1.7846
2023-04-26T09:10:16.260Z,2.0000
2023-04-26T09:11:19.237Z,1.7923
2023-04-26T09:12:22.157Z,1.6692
2023-04-26T09:13:25.148Z,1.7462
2023-04-26T09:14:28.081Z,1.7077
2023-04-26T09:15:30.992Z,1.6385
2023-04-26T09:16:34.089Z,1.7385
2023-04-26T09:17:37.220Z,1.7308
2023-04-26T09:18:39.837Z,1.7231
2023-04-26T09:19:42.769Z,1.8385
2023-04-26T09:20:45.728Z,1.6846
2023-04-26T09:21:48.723Z,1.9154
2023-04-26T09:22:51.644Z,1.9154
2023-04-26T09:23:54.562Z,1.9769
2023-04-26T09:24:57.557Z,1.8615
2023-04-26T09:26:00.439Z,1.9615
2023-04-26T09:27:03.403Z,2.1538
2023-04-26T09:28:06.364Z,1.9077
2023-04-26T09:29:09.294Z,2.0231
2023-04-26T09:30:12.242Z,1.9538
2023-04-26T09:31:15.237Z,1.9154
2023-04-26T09:32:18.187Z,1.9231
2023-04-26T09:33:21.134Z,1.7077
2023-04-26T09:34:24.020Z,1.7154
2023-04-26T09:35:26.967Z,1.7615
2023-04-26T09:36:29.909Z,1.9154
2023-04-26T09:37:34.386Z,1.8769
2023-04-26T09:38:35.847Z,1.8154
2023-04-26T09:39:38.768Z,1.8769
2023-04-26T09:40:41.770Z,1.9462
2023-04-26T09:41:44.680Z,1.9462
2023-04-26T09:42:47.601Z,2.0000
2023-04-26T09:43:50.733Z,1.8692
2023-04-26T09:44:53.499Z,1.7385
2023-04-26T09:45:56.453Z,1.7538
2023-04-26T09:46:59.446Z,1.8154
2023-04-26T09:48:02.376Z,1.7769
2023-04-26T09:49:05.335Z,1.7692
2023-04-26T09:50:08.285Z,1.8385
2023-04-26T09:51:11.202Z,1.7000
2023-04-26T09:52:14.144Z,1.6308
2023-04-26T09:53:17.147Z,1.8846
2023-04-26T09:54:20.053Z,1.7231
2023-04-26T09:55:34.231Z,1.7231
2023-04-26T09:56:25.961Z,1.7923
2023-04-26T09:57:28.922Z,1.8538
2023-04-26T09:58:31.836Z,1.7846
2023-04-26T09:59:34.809Z,1.9154
2023-04-26T10:00:37.751Z,1.9692
2023-04-26T10:01:40.696Z,2.0154
2023-04-26T10:02:43.732Z,2.1154
2023-04-26T10:03:46.855Z,2.0308
2023-04-26T10:04:49.678Z,2.1385
2023-04-26T10:05:52.532Z,2.0231
2023-04-26T10:06:55.520Z,1.9231
2023-04-26T10:07:58.419Z,1.8615
2023-04-26T10:09:01.366Z,1.8154
2023-04-26T10:10:04.348Z,1.8231
2023-04-26T10:11:07.268Z,1.8923
2023-04-26T10:12:10.210Z,1.7769
2023-04-26T10:13:13.302Z,1.7308
2023-04-26T10:14:16.105Z,1.8385
2023-04-26T10:15:19.095Z,1.7923
2023-04-26T10:16:22.070Z,1.7462
2023-04-26T10:17:25.018Z,1.9077
2023-04-26T10:18:27.964Z,1.9000
2023-04-26T10:19:30.869Z,1.9615
2023-04-26T10:20:33.931Z,1.8846
2023-04-26T10:21:36.754Z,2.0308
2023-04-26T10:22:39.776Z,1.9462
2023-04-26T10:23:42.648Z,1.8231
2023-04-26T10:24:45.585Z,1.7077
2023-04-26T10:25:48.553Z,1.7462
2023-04-26T10:26:51.497Z,1.6538
2023-04-26T10:27:54.436Z,1.6077
2023-04-26T10:29:02.084Z,1.7077
2023-04-26T10:30:00.327Z,1.8462
2023-04-26T10:31:03.278Z,1.8769
2023-04-26T10:32:06.346Z,1.7538
2023-04-26T10:33:09.270Z,1.6923
2023-04-26T10:34:12.227Z,1.7308
2023-04-26T10:35:15.089Z,1.7846
2023-04-26T10:36:18.076Z,1.7538
2023-04-26T10:37:21.074Z,1.7923
2023-04-26T10:38:23.962Z,1.6231
2023-04-26T10:39:26.969Z,1.4462
2023-04-26T10:40:29.876Z,1.5000
2023-04-26T10:41:32.880Z,1.4615
2023-04-26T10:42:35.793Z,1.4385
2023-04-26T10:43:38.735Z,1.3462
2023-04-26T10:44:41.694Z,1.5692
2023-04-26T10:45:44.669Z,1.4923
2023-04-26T10:46:47.605Z,1.3538
2023-04-26T10:47:50.635Z,1.5462
2023-04-26T10:48:53.866Z,1.5308
2023-04-26T10:49:56.482Z,1.4769
2023-04-26T10:50:59.473Z,1.4923
2023-04-26T10:52:02.378Z,1.5231
2023-04-26T10:53:05.411Z,1.4538
2023-04-26T10:54:08.292Z,1.4769
2023-04-26T10:55:11.435Z,1.2769
2023-04-26T10:56:14.182Z,1.1769
2023-04-26T10:57:17.151Z,1.3462
2023-04-26T10:58:20.123Z,1.3846
2023-04-26T10:59:39.688Z,1.3846
2023-04-26T11:00:26.779Z,1.3462
2023-04-26T11:01:28.985Z,1.4538
2023-04-26T11:02:31.946Z,1.2769
2023-04-26T11:03:35.191Z,1.3154
2023-04-26T11:04:37.932Z,1.2385
2023-04-26T11:05:40.799Z,1.3000
2023-04-26T11:06:43.772Z,1.2077
2023-04-26T11:07:46.728Z,1.3308
2023-04-26T11:08:49.746Z,1.3154
2023-04-26T11:09:52.756Z,1.2385
2023-04-26T11:10:55.571Z,1.2692
2023-04-26T11:11:58.513Z,1.2923
2023-04-26T11:13:01.497Z,1.2385
2023-04-26T11:14:04.452Z,1.2769
2023-04-26T11:15:07.400Z,1.1462
2023-04-26T11:16:10.413Z,1.1538
2023-04-26T11:17:13.410Z,1.1385
2023-04-26T11:18:16.254Z,1.1923
2023-04-26T11:19:19.208Z,1.1692
2023-04-26T11:20:22.208Z,0.9846
2023-04-26T11:21:25.116Z,1.2923
2023-04-26T11:22:28.064Z,1.2308
2023-04-26T11:23:31.085Z,1.1846
2023-04-26T11:24:34.060Z,1.1615
2023-04-26T11:25:36.980Z,1.1308
2023-04-26T11:26:39.877Z,1.1385
2023-04-26T11:27:42.912Z,1.1308
2023-04-26T11:28:45.819Z,1.2692
2023-04-26T11:29:48.732Z,1.1385
2023-04-26T11:30:51.726Z,1.0692
2023-04-26T11:31:54.777Z,1.0923
2023-04-26T11:32:57.646Z,1.1385
2023-04-26T11:34:00.787Z,1.2538
2023-04-26T11:35:03.507Z,1.1077
2023-04-26T11:36:06.584Z,1.0923
2023-04-26T11:37:09.451Z,1.0846
2023-04-26T11:38:12.448Z,1.0615
2023-04-26T11:39:15.351Z,1.0231
2023-04-26T11:40:18.334Z,1.0615
2023-04-26T11:41:21.454Z,1.1923
2023-04-26T11:42:24.198Z,1.2846
2023-04-26T11:43:27.206Z,1.1000
2023-04-26T11:44:30.267Z,1.0308
2023-04-26T11:45:33.076Z,1.1154
2023-04-26T11:46:36.075Z,1.0231
2023-04-26T11:47:39.019Z,0.9077
2023-04-26T11:48:42.015Z,1.0615
2023-04-26T11:49:44.910Z,0.9615
2023-04-26T11:50:47.944Z,1.0923
2023-04-26T11:51:50.822Z,1.0462
2023-04-26T11:52:53.770Z,1.0769
2023-04-26T11:53:56.838Z,1.0692
2023-04-26T11:54:59.683Z,1.1385
2023-04-26T11:56:02.700Z,1.2538
2023-04-26T11:57:05.607Z,1.0154
2023-04-26T11:58:08.559Z,0.9846
2023-04-26T11:59:11.553Z,1.1154
2023-04-26T12:00:14.486Z,1.0846
2023-04-26T12:01:17.517Z,1.0308
2023-04-26T12:02:20.492Z,1.0615
2023-04-26T12:03:23.486Z,1.0231
2023-04-26T12:04:29.689Z,1.1077
2023-04-26T12:05:29.279Z,1.0692
2023-04-26T12:06:32.327Z,1.1000
2023-04-26T12:07:35.182Z,1.0385
2023-04-26T12:08:38.194Z,1.0692
2023-04-26T12:09:41.111Z,1.2231
2023-04-26T12:10:44.045Z,1.0923
2023-04-26T12:11:46.990Z,1.1231
2023-04-26T12:12:50.069Z,1.0923
2023-04-26T12:13:52.964Z,1.1462
2023-04-26T12:14:55.888Z,1.0923
2023-04-26T12:15:59.073Z,1.1692
2023-04-26T12:17:02.159Z,1.3615
2023-04-26T12:18:04.864Z,1.2308
2023-04-26T12:19:07.756Z,1.1615
2023-04-26T12:20:10.822Z,1.1615
2023-04-26T12:21:13.750Z,1.1692
2023-04-26T12:22:16.623Z,1.1615
2023-04-26T12:23:19.703Z,1.0231
2023-04-26T12:24:22.555Z,1.2538
2023-04-26T12:25:25.579Z,1.2769
2023-04-26T12:26:28.512Z,1.1769
2023-04-26T12:27:31.421Z,1.1077
2023-04-26T12:28:34.380Z,1.2538
2023-04-26T12:29:37.346Z,1.1692
2023-04-26T12:30:40.333Z,1.1154
2023-04-26T12:31:43.282Z,1.2154
2023-04-26T12:32:46.288Z,1.4308
2023-04-26T12:33:49.158Z,1.3923
2023-04-26T12:34:52.125Z,1.3000
2023-04-26T12:35:55.183Z,1.2538
2023-04-26T12:36:58.317Z,1.1846
2023-04-26T12:38:01.022Z,1.1308
2023-04-26T12:39:03.980Z,1.1231
2023-04-26T12:40:06.926Z,1.0231
2023-04-26T12:41:09.881Z,1.1538
2023-04-26T12:42:13.053Z,1.1231
2023-04-26T12:43:15.852Z,1.0769
2023-04-26T12:44:20.578Z,1.1462
2023-04-26T12:45:21.713Z,1.0769
2023-04-26T12:46:24.683Z,1.1692
2023-04-26T12:47:27.659Z,1.1692
2023-04-26T12:48:30.607Z,1.2462
2023-04-26T12:49:33.555Z,1.2154
2023-04-26T12:50:36.502Z,1.1769
2023-04-26T12:51:39.486Z,1.3462
2023-04-26T12:52:42.435Z,1.1462
2023-04-26T12:53:45.388Z,1.2615
2023-04-26T12:54:48.409Z,1.1846
2023-04-26T12:55:51.332Z,1.2231
2023-04-26T12:56:54.286Z,1.1846
2023-04-26T12:57:57.754Z,1.2769
2023-04-26T12:59:00.204Z,1.1308
2023-04-26T13:00:03.141Z,1.1385
2023-04-26T13:01:06.137Z,1.2000
2023-04-26T13:02:09.093Z,1.2000
2023-04-26T13:03:12.150Z,1.2462
2023-04-26T13:04:15.213Z,1.2538
2023-04-26T13:05:17.928Z,1.1538
2023-04-26T13:06:20.891Z,1.4308